sensor_id;sensor_type;location;lat;lon;timestamp;temperature;humidity
22321;DHT22;11328;53.928;18.522;2022-07-29T00:01:07;17.20;99.90
22321;DHT22;11328;53.928;18.522;2022-07-29T00:03:45;17.20;99.90
22321;DHT22;11328;53.928;18.522;2022-07-29T00:06:12;17.10;99.90
22321;DHT22;11328;53.928;18.522;2022-07-29T00:08:40;17.10;99.90
22321;DHT22;11328;53.928;18.522;2022-07-29T00:11:07;17.10;99.90
22321;DHT22;11328;53.928;18.522;2022-07-29T00:13:34;17.20;99.90
22321;DHT22;11328;53.928;18.522;2022-07-29T00:16:01;17.20;99.90
22321;DHT22;11328;53.928;18.522;2022-07-29T00:18:31;17.20;99.90
22321;DHT22;11328;53.928;18.522;2022-07-29T00:20:59;17.10;99.90
22321;DHT22;11328;53.928;18.522;2022-07-29T00:23:26;17.10;99.90
22321;DHT22;11328;53.928;18.522;2022-07-29T00:25:53;17.10;99.90
22321;DHT22;11328;53.928;18.522;2022-07-29T00:28:20;17.10;99.90
22321;DHT22;11328;53.928;18.522;2022-07-29T00:30:47;17.10;99.90
22321;DHT22;11328;53.928;18.522;2022-07-29T00:33:14;17.10;99.90
22321;DHT22;11328;53.928;18.522;2022-07-29T00:35:41;17.10;99.90
22321;DHT22;11328;53.928;18.522;2022-07-29T00:38:12;17.10;99.90
22321;DHT22;11328;53.928;18.522;2022-07-29T00:40:41;17.10;99.90
22321;DHT22;11328;53.928;18.522;2022-07-29T00:43:10;17.10;99.90
22321;DHT22;11328;53.928;18.522;2022-07-29T00:45:38;17.10;99.90
22321;DHT22;11328;53.928;18.522;2022-07-29T00:48:06;17.10;99.90
22321;DHT22;11328;53.928;18.522;2022-07-29T00:50:36;17.00;99.90
22321;DHT22;11328;53.928;18.522;2022-07-29T00:53:06;17.00;99.90
22321;DHT22;11328;53.928;18.522;2022-07-29T00:55:34;17.00;99.90
22321;DHT22;11328;53.928;18.522;2022-07-29T00:58:02;17.00;99.90
22321;DHT22;11328;53.928;18.522;2022-07-29T01:00:29;17.00;99.90
22321;DHT22;11328;53.928;18.522;2022-07-29T01:02:57;17.00;99.90
22321;DHT22;11328;53.928;18.522;2022-07-29T01:05:26;17.00;99.90
22321;DHT22;11328;53.928;18.522;2022-07-29T01:08:15;16.90;99.90
22321;DHT22;11328;53.928;18.522;2022-07-29T01:10:43;16.90;99.90
22321;DHT22;11328;53.928;18.522;2022-07-29T01:13:12;16.90;99.90
22321;DHT22;11328;53.928;18.522;2022-07-29T01:15:47;16.80;99.90
22321;DHT22;11328;53.928;18.522;2022-07-29T01:18:33;16.80;99.90
22321;DHT22;11328;53.928;18.522;2022-07-29T01:23:59;16.80;99.90
22321;DHT22;11328;53.928;18.522;2022-07-29T01:26:49;16.70;99.90
22321;DHT22;11328;53.928;18.522;2022-07-29T01:29:36;16.60;99.90
22321;DHT22;11328;53.928;18.522;2022-07-29T01:32:22;16.60;99.90
22321;DHT22;11328;53.928;18.522;2022-07-29T01:37:50;16.50;99.90
22321;DHT22;11328;53.928;18.522;2022-07-29T01:42:56;16.60;99.90
22321;DHT22;11328;53.928;18.522;2022-07-29T01:45:39;16.50;99.90
22321;DHT22;11328;53.928;18.522;2022-07-29T01:48:11;16.60;99.90
22321;DHT22;11328;53.928;18.522;2022-07-29T01:50:56;16.50;99.90
22321;DHT22;11328;53.928;18.522;2022-07-29T01:56:51;16.50;99.90
22321;DHT22;11328;53.928;18.522;2022-07-29T01:59:23;16.50;99.90
22321;DHT22;11328;53.928;18.522;2022-07-29T02:01:54;16.50;99.90
22321;DHT22;11328;53.928;18.522;2022-07-29T02:04:25;16.50;99.90
22321;DHT22;11328;53.928;18.522;2022-07-29T02:07:00;16.50;99.90
22321;DHT22;11328;53.928;18.522;2022-07-29T02:09:32;16.50;99.90
22321;DHT22;11328;53.928;18.522;2022-07-29T02:12:03;16.50;99.90
22321;DHT22;11328;53.928;18.522;2022-07-29T02:14:36;16.40;99.90
22321;DHT22;11328;53.928;18.522;2022-07-29T02:17:07;16.50;99.90
22321;DHT22;11328;53.928;18.522;2022-07-29T02:19:36;16.50;99.90
22321;DHT22;11328;53.928;18.522;2022-07-29T02:22:05;16.50;99.90
22321;DHT22;11328;53.928;18.522;2022-07-29T02:24:34;16.40;99.90
22321;DHT22;11328;53.928;18.522;2022-07-29T02:27:04;16.40;99.90
22321;DHT22;11328;53.928;18.522;2022-07-29T02:29:31;16.40;99.90
22321;DHT22;11328;53.928;18.522;2022-07-29T02:32:01;16.40;99.90
22321;DHT22;11328;53.928;18.522;2022-07-29T02:34:30;16.40;99.90
22321;DHT22;11328;53.928;18.522;2022-07-29T02:36:59;16.40;99.90
22321;DHT22;11328;53.928;18.522;2022-07-29T02:39:28;16.40;99.90
22321;DHT22;11328;53.928;18.522;2022-07-29T02:42:01;16.30;99.90
22321;DHT22;11328;53.928;18.522;2022-07-29T02:44:32;16.30;99.90
22321;DHT22;11328;53.928;18.522;2022-07-29T02:50:29;16.30;99.90
22321;DHT22;11328;53.928;18.522;2022-07-29T02:53:05;16.20;99.90
22321;DHT22;11328;53.928;18.522;2022-07-29T02:55:59;16.30;99.90
22321;DHT22;11328;53.928;18.522;2022-07-29T02:58:33;16.30;99.90
22321;DHT22;11328;53.928;18.522;2022-07-29T03:01:17;16.30;99.90
22321;DHT22;11328;53.928;18.522;2022-07-29T03:03:49;16.30;99.90
22321;DHT22;11328;53.928;18.522;2022-07-29T03:06:22;16.30;99.90
22321;DHT22;11328;53.928;18.522;2022-07-29T03:09:04;16.30;99.90
22321;DHT22;11328;53.928;18.522;2022-07-29T03:11:39;16.20;99.90
22321;DHT22;11328;53.928;18.522;2022-07-29T03:14:19;16.20;99.90
22321;DHT22;11328;53.928;18.522;2022-07-29T03:16:47;16.20;99.90
22321;DHT22;11328;53.928;18.522;2022-07-29T03:19:16;16.10;99.90
22321;DHT22;11328;53.928;18.522;2022-07-29T03:21:45;16.20;99.90
22321;DHT22;11328;53.928;18.522;2022-07-29T03:24:25;16.20;99.90
22321;DHT22;11328;53.928;18.522;2022-07-29T03:26:55;16.20;99.90
22321;DHT22;11328;53.928;18.522;2022-07-29T03:29:23;16.20;99.90
22321;DHT22;11328;53.928;18.522;2022-07-29T03:32:00;16.20;99.90
22321;DHT22;11328;53.928;18.522;2022-07-29T03:34:35;16.30;99.90
22321;DHT22;11328;53.928;18.522;2022-07-29T03:37:05;16.30;99.90
22321;DHT22;11328;53.928;18.522;2022-07-29T03:39:36;16.30;99.90
22321;DHT22;11328;53.928;18.522;2022-07-29T03:42:07;16.20;99.90
22321;DHT22;11328;53.928;18.522;2022-07-29T03:44:37;16.20;99.90
22321;DHT22;11328;53.928;18.522;2022-07-29T03:47:09;16.20;99.90
22321;DHT22;11328;53.928;18.522;2022-07-29T03:49:40;16.20;99.90
22321;DHT22;11328;53.928;18.522;2022-07-29T03:52:10;16.20;99.90
22321;DHT22;11328;53.928;18.522;2022-07-29T03:54:38;16.30;99.90
22321;DHT22;11328;53.928;18.522;2022-07-29T03:57:06;16.30;99.90
22321;DHT22;11328;53.928;18.522;2022-07-29T03:59:34;16.30;99.90
22321;DHT22;11328;53.928;18.522;2022-07-29T04:02:06;16.40;99.90
22321;DHT22;11328;53.928;18.522;2022-07-29T04:04:37;16.40;99.90
22321;DHT22;11328;53.928;18.522;2022-07-29T04:07:05;16.50;99.90
22321;DHT22;11328;53.928;18.522;2022-07-29T04:09:32;16.50;99.90
22321;DHT22;11328;53.928;18.522;2022-07-29T04:11:59;16.50;99.90
22321;DHT22;11328;53.928;18.522;2022-07-29T04:14:33;16.60;99.90
22321;DHT22;11328;53.928;18.522;2022-07-29T04:17:01;16.60;99.90
22321;DHT22;11328;53.928;18.522;2022-07-29T04:19:30;16.60;99.90
22321;DHT22;11328;53.928;18.522;2022-07-29T04:22:00;16.70;99.90
22321;DHT22;11328;53.928;18.522;2022-07-29T04:24:27;16.70;99.90
22321;DHT22;11328;53.928;18.522;2022-07-29T04:26:58;16.80;99.90
22321;DHT22;11328;53.928;18.522;2022-07-29T04:29:24;16.90;99.90
22321;DHT22;11328;53.928;18.522;2022-07-29T04:31:52;17.00;99.90
22321;DHT22;11328;53.928;18.522;2022-07-29T04:34:19;17.00;99.90
22321;DHT22;11328;53.928;18.522;2022-07-29T04:36:46;17.10;99.90
22321;DHT22;11328;53.928;18.522;2022-07-29T04:39:13;17.10;99.90
22321;DHT22;11328;53.928;18.522;2022-07-29T04:41:48;17.20;99.90
22321;DHT22;11328;53.928;18.522;2022-07-29T04:44:18;17.20;99.90
22321;DHT22;11328;53.928;18.522;2022-07-29T04:46:45;17.20;99.90
22321;DHT22;11328;53.928;18.522;2022-07-29T04:49:12;17.30;99.90
22321;DHT22;11328;53.928;18.522;2022-07-29T04:51:40;17.20;99.90
22321;DHT22;11328;53.928;18.522;2022-07-29T04:54:07;17.20;99.90
22321;DHT22;11328;53.928;18.522;2022-07-29T04:56:34;17.20;99.90
22321;DHT22;11328;53.928;18.522;2022-07-29T04:59:01;17.20;99.90
22321;DHT22;11328;53.928;18.522;2022-07-29T05:01:27;17.20;99.90
22321;DHT22;11328;53.928;18.522;2022-07-29T05:03:55;17.30;99.90
22321;DHT22;11328;53.928;18.522;2022-07-29T05:06:26;17.40;99.90
22321;DHT22;11328;53.928;18.522;2022-07-29T05:08:53;17.50;99.90
22321;DHT22;11328;53.928;18.522;2022-07-29T05:11:20;17.60;99.90
22321;DHT22;11328;53.928;18.522;2022-07-29T05:13:52;17.70;99.90
22321;DHT22;11328;53.928;18.522;2022-07-29T05:16:19;17.70;99.90
22321;DHT22;11328;53.928;18.522;2022-07-29T05:18:47;17.80;99.90
22321;DHT22;11328;53.928;18.522;2022-07-29T05:21:14;17.90;99.90
22321;DHT22;11328;53.928;18.522;2022-07-29T05:23:41;17.90;99.90
22321;DHT22;11328;53.928;18.522;2022-07-29T05:26:08;18.10;99.90
22321;DHT22;11328;53.928;18.522;2022-07-29T05:28:35;18.10;99.90
22321;DHT22;11328;53.928;18.522;2022-07-29T05:31:02;18.30;99.90
22321;DHT22;11328;53.928;18.522;2022-07-29T05:33:32;18.40;99.90
22321;DHT22;11328;53.928;18.522;2022-07-29T05:36:03;18.60;99.90
22321;DHT22;11328;53.928;18.522;2022-07-29T05:38:34;18.80;99.90
22321;DHT22;11328;53.928;18.522;2022-07-29T05:41:02;18.90;99.90
22321;DHT22;11328;53.928;18.522;2022-07-29T05:43:32;18.80;99.90
22321;DHT22;11328;53.928;18.522;2022-07-29T05:46:00;19.10;99.90
22321;DHT22;11328;53.928;18.522;2022-07-29T05:48:27;19.20;99.90
22321;DHT22;11328;53.928;18.522;2022-07-29T05:50:54;19.20;99.90
22321;DHT22;11328;53.928;18.522;2022-07-29T05:53:24;19.10;99.90
22321;DHT22;11328;53.928;18.522;2022-07-29T05:55:51;19.00;99.90
22321;DHT22;11328;53.928;18.522;2022-07-29T05:58:18;19.10;99.90
22321;DHT22;11328;53.928;18.522;2022-07-29T06:00:46;19.30;99.90
22321;DHT22;11328;53.928;18.522;2022-07-29T06:03:13;19.50;99.90
22321;DHT22;11328;53.928;18.522;2022-07-29T06:05:40;19.70;99.90
22321;DHT22;11328;53.928;18.522;2022-07-29T06:08:07;19.90;99.90
22321;DHT22;11328;53.928;18.522;2022-07-29T06:10:35;20.00;99.90
22321;DHT22;11328;53.928;18.522;2022-07-29T06:13:02;20.00;99.90
22321;DHT22;11328;53.928;18.522;2022-07-29T06:15:29;20.10;99.90
22321;DHT22;11328;53.928;18.522;2022-07-29T06:17:56;20.20;99.90
22321;DHT22;11328;53.928;18.522;2022-07-29T06:20:27;20.30;99.90
22321;DHT22;11328;53.928;18.522;2022-07-29T06:22:57;20.30;99.90
22321;DHT22;11328;53.928;18.522;2022-07-29T06:25:25;20.50;99.90
22321;DHT22;11328;53.928;18.522;2022-07-29T06:27:56;20.40;99.90
22321;DHT22;11328;53.928;18.522;2022-07-29T06:30:23;20.40;99.90
22321;DHT22;11328;53.928;18.522;2022-07-29T06:32:51;20.70;99.90
22321;DHT22;11328;53.928;18.522;2022-07-29T06:35:18;20.90;99.90
22321;DHT22;11328;53.928;18.522;2022-07-29T06:38:05;21.10;99.90
22321;DHT22;11328;53.928;18.522;2022-07-29T06:40:52;21.30;99.90
22321;DHT22;11328;53.928;18.522;2022-07-29T06:43:37;21.40;99.90
22321;DHT22;11328;53.928;18.522;2022-07-29T06:46:20;21.40;99.90
22321;DHT22;11328;53.928;18.522;2022-07-29T06:48:49;21.60;99.90
22321;DHT22;11328;53.928;18.522;2022-07-29T06:51:17;21.70;99.90
22321;DHT22;11328;53.928;18.522;2022-07-29T06:53:50;21.90;99.90
22321;DHT22;11328;53.928;18.522;2022-07-29T06:56:33;21.90;99.90
22321;DHT22;11328;53.928;18.522;2022-07-29T06:59:10;22.00;99.90
22321;DHT22;11328;53.928;18.522;2022-07-29T07:01:42;22.00;99.90
22321;DHT22;11328;53.928;18.522;2022-07-29T07:04:11;22.10;99.90
22321;DHT22;11328;53.928;18.522;2022-07-29T07:06:38;22.30;99.90
22321;DHT22;11328;53.928;18.522;2022-07-29T07:09:06;22.60;99.90
22321;DHT22;11328;53.928;18.522;2022-07-29T07:11:33;22.90;99.90
22321;DHT22;11328;53.928;18.522;2022-07-29T07:14:00;23.10;99.90
22321;DHT22;11328;53.928;18.522;2022-07-29T07:16:30;23.20;99.90
22321;DHT22;11328;53.928;18.522;2022-07-29T07:18:58;23.50;99.90
22321;DHT22;11328;53.928;18.522;2022-07-29T07:21:25;23.50;99.90
22321;DHT22;11328;53.928;18.522;2022-07-29T07:23:59;23.60;99.90
22321;DHT22;11328;53.928;18.522;2022-07-29T07:26:26;23.70;99.90
22321;DHT22;11328;53.928;18.522;2022-07-29T07:28:57;23.70;99.90
22321;DHT22;11328;53.928;18.522;2022-07-29T07:31:24;23.70;99.90
22321;DHT22;11328;53.928;18.522;2022-07-29T07:33:51;23.70;99.90
22321;DHT22;11328;53.928;18.522;2022-07-29T07:36:20;23.70;99.90
22321;DHT22;11328;53.928;18.522;2022-07-29T07:38:47;23.50;99.90
22321;DHT22;11328;53.928;18.522;2022-07-29T07:41:14;23.40;99.90
22321;DHT22;11328;53.928;18.522;2022-07-29T07:43:41;23.40;99.90
22321;DHT22;11328;53.928;18.522;2022-07-29T07:46:08;23.30;99.90
22321;DHT22;11328;53.928;18.522;2022-07-29T07:48:35;23.40;99.90
22321;DHT22;11328;53.928;18.522;2022-07-29T07:51:03;23.30;99.90
22321;DHT22;11328;53.928;18.522;2022-07-29T07:53:30;23.40;99.90
22321;DHT22;11328;53.928;18.522;2022-07-29T07:55:58;23.80;99.90
22321;DHT22;11328;53.928;18.522;2022-07-29T07:58:37;23.30;99.90
22321;DHT22;11328;53.928;18.522;2022-07-29T08:01:05;23.20;99.90
22321;DHT22;11328;53.928;18.522;2022-07-29T08:03:33;23.60;99.90
22321;DHT22;11328;53.928;18.522;2022-07-29T08:06:00;23.70;99.90
22321;DHT22;11328;53.928;18.522;2022-07-29T08:08:27;23.70;99.90
22321;DHT22;11328;53.928;18.522;2022-07-29T08:10:54;24.00;99.90
22321;DHT22;11328;53.928;18.522;2022-07-29T08:13:24;24.20;99.90
22321;DHT22;11328;53.928;18.522;2022-07-29T08:15:55;24.40;99.90
22321;DHT22;11328;53.928;18.522;2022-07-29T08:18:39;24.30;99.90
22321;DHT22;11328;53.928;18.522;2022-07-29T08:21:07;24.10;99.90
22321;DHT22;11328;53.928;18.522;2022-07-29T08:23:34;24.30;99.90
22321;DHT22;11328;53.928;18.522;2022-07-29T08:26:13;24.50;99.90
22321;DHT22;11328;53.928;18.522;2022-07-29T08:28:42;24.10;99.90
22321;DHT22;11328;53.928;18.522;2022-07-29T08:31:17;24.40;99.90
22321;DHT22;11328;53.928;18.522;2022-07-29T08:33:44;24.70;99.90
22321;DHT22;11328;53.928;18.522;2022-07-29T08:36:11;24.90;99.90
22321;DHT22;11328;53.928;18.522;2022-07-29T08:38:39;25.30;99.90
22321;DHT22;11328;53.928;18.522;2022-07-29T08:41:07;25.20;99.90
22321;DHT22;11328;53.928;18.522;2022-07-29T08:43:34;25.10;99.10
22321;DHT22;11328;53.928;18.522;2022-07-29T08:46:04;25.10;99.00
22321;DHT22;11328;53.928;18.522;2022-07-29T08:48:31;25.10;98.80
22321;DHT22;11328;53.928;18.522;2022-07-29T08:50:59;25.50;99.90
22321;DHT22;11328;53.928;18.522;2022-07-29T08:53:30;25.90;98.70
22321;DHT22;11328;53.928;18.522;2022-07-29T08:55:58;26.10;98.40
22321;DHT22;11328;53.928;18.522;2022-07-29T08:58:27;26.30;97.70
22321;DHT22;11328;53.928;18.522;2022-07-29T09:01:03;26.50;96.80
22321;DHT22;11328;53.928;18.522;2022-07-29T09:03:39;26.50;96.30
22321;DHT22;11328;53.928;18.522;2022-07-29T09:06:08;26.70;96.60
22321;DHT22;11328;53.928;18.522;2022-07-29T09:08:35;26.70;96.40
22321;DHT22;11328;53.928;18.522;2022-07-29T09:11:02;26.60;96.90
22321;DHT22;11328;53.928;18.522;2022-07-29T09:13:31;26.60;96.60
22321;DHT22;11328;53.928;18.522;2022-07-29T09:15:58;26.70;96.70
22321;DHT22;11328;53.928;18.522;2022-07-29T09:18:36;26.90;96.40
22321;DHT22;11328;53.928;18.522;2022-07-29T09:21:07;27.00;95.90
22321;DHT22;11328;53.928;18.522;2022-07-29T09:24:12;27.20;95.20
22321;DHT22;11328;53.928;18.522;2022-07-29T09:29:13;26.40;94.70
22321;DHT22;11328;53.928;18.522;2022-07-29T09:31:50;26.40;93.80
22321;DHT22;11328;53.928;18.522;2022-07-29T09:34:26;26.40;94.90
22321;DHT22;11328;53.928;18.522;2022-07-29T09:36:58;26.70;94.40
22321;DHT22;11328;53.928;18.522;2022-07-29T09:39:40;26.90;94.10
22321;DHT22;11328;53.928;18.522;2022-07-29T09:42:28;26.70;93.10
22321;DHT22;11328;53.928;18.522;2022-07-29T09:44:56;26.90;93.70
22321;DHT22;11328;53.928;18.522;2022-07-29T09:47:44;27.00;93.70
22321;DHT22;11328;53.928;18.522;2022-07-29T09:50:15;27.00;92.80
22321;DHT22;11328;53.928;18.522;2022-07-29T09:52:51;26.90;92.80
22321;DHT22;11328;53.928;18.522;2022-07-29T09:55:20;27.00;92.80
22321;DHT22;11328;53.928;18.522;2022-07-29T09:57:47;27.10;93.00
22321;DHT22;11328;53.928;18.522;2022-07-29T10:00:17;27.10;92.10
22321;DHT22;11328;53.928;18.522;2022-07-29T10:02:48;26.90;92.00
22321;DHT22;11328;53.928;18.522;2022-07-29T10:05:23;26.60;91.80
22321;DHT22;11328;53.928;18.522;2022-07-29T10:07:57;26.90;92.30
22321;DHT22;11328;53.928;18.522;2022-07-29T10:10:28;26.70;91.50
22321;DHT22;11328;53.928;18.522;2022-07-29T10:13:02;26.80;92.00
22321;DHT22;11328;53.928;18.522;2022-07-29T10:15:39;26.60;90.70
22321;DHT22;11328;53.928;18.522;2022-07-29T10:18:12;26.50;91.10
22321;DHT22;11328;53.928;18.522;2022-07-29T10:20:40;26.30;91.50
22321;DHT22;11328;53.928;18.522;2022-07-29T10:23:08;26.50;91.60
22321;DHT22;11328;53.928;18.522;2022-07-29T10:25:36;26.80;90.90
22321;DHT22;11328;53.928;18.522;2022-07-29T10:28:05;27.00;89.50
22321;DHT22;11328;53.928;18.522;2022-07-29T10:30:32;26.80;88.90
22321;DHT22;11328;53.928;18.522;2022-07-29T10:35:59;27.20;87.30
22321;DHT22;11328;53.928;18.522;2022-07-29T10:38:55;27.50;86.70
22321;DHT22;11328;53.928;18.522;2022-07-29T10:44:45;27.10;90.40
22321;DHT22;11328;53.928;18.522;2022-07-29T10:47:27;26.70;89.90
22321;DHT22;11328;53.928;18.522;2022-07-29T10:49:59;26.50;89.50
22321;DHT22;11328;53.928;18.522;2022-07-29T10:55:35;26.20;87.20
22321;DHT22;11328;53.928;18.522;2022-07-29T10:58:20;26.00;88.40
22321;DHT22;11328;53.928;18.522;2022-07-29T11:00:53;25.70;90.70
22321;DHT22;11328;53.928;18.522;2022-07-29T11:03:42;25.30;89.40
22321;DHT22;11328;53.928;18.522;2022-07-29T11:06:17;25.30;89.40
22321;DHT22;11328;53.928;18.522;2022-07-29T11:09:16;25.40;90.10
22321;DHT22;11328;53.928;18.522;2022-07-29T11:11:46;25.10;90.10
22321;DHT22;11328;53.928;18.522;2022-07-29T11:14:18;25.20;89.90
22321;DHT22;11328;53.928;18.522;2022-07-29T11:17:23;25.50;90.40
22321;DHT22;11328;53.928;18.522;2022-07-29T11:19:51;25.50;90.50
22321;DHT22;11328;53.928;18.522;2022-07-29T11:22:35;25.20;89.60
22321;DHT22;11328;53.928;18.522;2022-07-29T11:25:16;25.20;90.60
22321;DHT22;11328;53.928;18.522;2022-07-29T11:32:38;25.90;89.40
22321;DHT22;11328;53.928;18.522;2022-07-29T11:35:11;26.40;88.50
22321;DHT22;11328;53.928;18.522;2022-07-29T11:37:45;26.40;88.20
22321;DHT22;11328;53.928;18.522;2022-07-29T11:40:23;26.30;87.90
22321;DHT22;11328;53.928;18.522;2022-07-29T11:42:51;25.90;87.20
22321;DHT22;11328;53.928;18.522;2022-07-29T11:45:21;25.90;87.60
22321;DHT22;11328;53.928;18.522;2022-07-29T11:52:52;26.10;87.60
22321;DHT22;11328;53.928;18.522;2022-07-29T11:55:23;26.30;84.90
22321;DHT22;11328;53.928;18.522;2022-07-29T11:58:00;25.80;85.00
22321;DHT22;11328;53.928;18.522;2022-07-29T12:00:47;25.60;85.70
22321;DHT22;11328;53.928;18.522;2022-07-29T12:03:26;25.30;86.40
22321;DHT22;11328;53.928;18.522;2022-07-29T12:06:14;25.40;87.30
22321;DHT22;11328;53.928;18.522;2022-07-29T12:09:08;25.40;87.80
22321;DHT22;11328;53.928;18.522;2022-07-29T12:11:40;25.20;88.20
22321;DHT22;11328;53.928;18.522;2022-07-29T12:14:27;25.20;87.30
22321;DHT22;11328;53.928;18.522;2022-07-29T12:16:56;25.30;86.80
22321;DHT22;11328;53.928;18.522;2022-07-29T12:19:25;25.50;87.70
22321;DHT22;11328;53.928;18.522;2022-07-29T12:21:54;25.60;85.50
22321;DHT22;11328;53.928;18.522;2022-07-29T12:24:26;25.60;85.20
22321;DHT22;11328;53.928;18.522;2022-07-29T12:27:10;25.50;85.50
22321;DHT22;11328;53.928;18.522;2022-07-29T12:29:39;25.40;85.40
22321;DHT22;11328;53.928;18.522;2022-07-29T12:32:13;25.40;87.30
22321;DHT22;11328;53.928;18.522;2022-07-29T12:34:45;25.40;88.30
22321;DHT22;11328;53.928;18.522;2022-07-29T12:37:12;25.50;87.60
22321;DHT22;11328;53.928;18.522;2022-07-29T12:39:40;25.60;87.20
22321;DHT22;11328;53.928;18.522;2022-07-29T12:42:14;25.60;85.90
22321;DHT22;11328;53.928;18.522;2022-07-29T12:44:48;25.60;87.10
22321;DHT22;11328;53.928;18.522;2022-07-29T12:47:17;25.60;85.10
22321;DHT22;11328;53.928;18.522;2022-07-29T12:49:46;25.70;85.60
22321;DHT22;11328;53.928;18.522;2022-07-29T12:52:31;25.80;85.10
22321;DHT22;11328;53.928;18.522;2022-07-29T12:55:00;25.90;85.10
22321;DHT22;11328;53.928;18.522;2022-07-29T12:57:28;26.10;85.10
22321;DHT22;11328;53.928;18.522;2022-07-29T13:02:37;26.30;82.60
22321;DHT22;11328;53.928;18.522;2022-07-29T13:05:06;26.20;83.90
22321;DHT22;11328;53.928;18.522;2022-07-29T13:07:35;26.10;84.80
22321;DHT22;11328;53.928;18.522;2022-07-29T13:10:21;26.10;83.10
22321;DHT22;11328;53.928;18.522;2022-07-29T13:15:33;26.00;83.30
22321;DHT22;11328;53.928;18.522;2022-07-29T13:18:00;26.10;82.80
22321;DHT22;11328;53.928;18.522;2022-07-29T13:20:28;26.30;83.20
22321;DHT22;11328;53.928;18.522;2022-07-29T13:22:58;26.30;83.20
22321;DHT22;11328;53.928;18.522;2022-07-29T13:25:29;26.20;81.70
22321;DHT22;11328;53.928;18.522;2022-07-29T13:27:59;26.20;83.50
22321;DHT22;11328;53.928;18.522;2022-07-29T13:30:27;26.10;82.30
22321;DHT22;11328;53.928;18.522;2022-07-29T13:32:54;26.20;80.90
22321;DHT22;11328;53.928;18.522;2022-07-29T13:35:21;26.00;81.90
22321;DHT22;11328;53.928;18.522;2022-07-29T13:37:48;26.10;80.70
22321;DHT22;11328;53.928;18.522;2022-07-29T13:40:17;26.00;80.90
22321;DHT22;11328;53.928;18.522;2022-07-29T13:42:44;26.00;80.40
22321;DHT22;11328;53.928;18.522;2022-07-29T13:45:12;26.00;80.60
22321;DHT22;11328;53.928;18.522;2022-07-29T13:47:39;26.00;81.90
22321;DHT22;11328;53.928;18.522;2022-07-29T13:50:14;26.00;82.30
22321;DHT22;11328;53.928;18.522;2022-07-29T13:52:41;26.00;84.00
22321;DHT22;11328;53.928;18.522;2022-07-29T13:55:09;26.10;83.30
22321;DHT22;11328;53.928;18.522;2022-07-29T13:57:36;26.00;82.90
22321;DHT22;11328;53.928;18.522;2022-07-29T14:00:04;25.80;81.80
22321;DHT22;11328;53.928;18.522;2022-07-29T14:02:31;25.80;82.70
22321;DHT22;11328;53.928;18.522;2022-07-29T14:04:59;25.90;83.80
22321;DHT22;11328;53.928;18.522;2022-07-29T14:07:33;26.00;84.20
22321;DHT22;11328;53.928;18.522;2022-07-29T14:10:00;25.80;84.90
22321;DHT22;11328;53.928;18.522;2022-07-29T14:12:27;25.80;84.10
22321;DHT22;11328;53.928;18.522;2022-07-29T14:14:54;25.90;83.90
22321;DHT22;11328;53.928;18.522;2022-07-29T14:17:22;26.00;83.30
22321;DHT22;11328;53.928;18.522;2022-07-29T14:19:49;25.80;83.40
22321;DHT22;11328;53.928;18.522;2022-07-29T14:22:17;25.70;84.20
22321;DHT22;11328;53.928;18.522;2022-07-29T14:24:48;25.60;84.80
22321;DHT22;11328;53.928;18.522;2022-07-29T14:27:15;25.50;85.80
22321;DHT22;11328;53.928;18.522;2022-07-29T14:29:42;25.60;86.60
22321;DHT22;11328;53.928;18.522;2022-07-29T14:32:09;25.70;87.30
22321;DHT22;11328;53.928;18.522;2022-07-29T14:34:38;25.80;87.00
22321;DHT22;11328;53.928;18.522;2022-07-29T14:37:06;25.80;86.50
22321;DHT22;11328;53.928;18.522;2022-07-29T14:39:34;25.50;88.70
22321;DHT22;11328;53.928;18.522;2022-07-29T14:42:11;25.60;87.10
22321;DHT22;11328;53.928;18.522;2022-07-29T14:44:40;25.60;88.90
22321;DHT22;11328;53.928;18.522;2022-07-29T14:47:08;25.70;88.80
22321;DHT22;11328;53.928;18.522;2022-07-29T14:49:35;25.80;89.50
22321;DHT22;11328;53.928;18.522;2022-07-29T14:52:03;25.80;88.70
22321;DHT22;11328;53.928;18.522;2022-07-29T14:54:30;25.70;88.20
22321;DHT22;11328;53.928;18.522;2022-07-29T14:56:59;25.60;89.60
22321;DHT22;11328;53.928;18.522;2022-07-29T14:59:26;25.50;89.00
22321;DHT22;11328;53.928;18.522;2022-07-29T15:01:53;25.40;90.10
22321;DHT22;11328;53.928;18.522;2022-07-29T15:04:21;25.50;90.20
22321;DHT22;11328;53.928;18.522;2022-07-29T15:06:48;25.50;89.50
22321;DHT22;11328;53.928;18.522;2022-07-29T15:09:15;25.60;89.70
22321;DHT22;11328;53.928;18.522;2022-07-29T15:11:43;25.60;89.90
22321;DHT22;11328;53.928;18.522;2022-07-29T15:14:10;25.50;90.20
22321;DHT22;11328;53.928;18.522;2022-07-29T15:16:38;25.40;90.50
22321;DHT22;11328;53.928;18.522;2022-07-29T15:19:12;25.50;90.70
22321;DHT22;11328;53.928;18.522;2022-07-29T15:21:39;25.40;90.70
22321;DHT22;11328;53.928;18.522;2022-07-29T15:24:17;25.10;90.90
22321;DHT22;11328;53.928;18.522;2022-07-29T15:26:44;24.90;91.30
22321;DHT22;11328;53.928;18.522;2022-07-29T15:29:12;24.80;91.40
22321;DHT22;11328;53.928;18.522;2022-07-29T15:31:40;24.60;91.90
22321;DHT22;11328;53.928;18.522;2022-07-29T15:34:10;24.50;92.00
22321;DHT22;11328;53.928;18.522;2022-07-29T15:36:37;24.50;92.20
22321;DHT22;11328;53.928;18.522;2022-07-29T15:39:20;24.50;92.20
22321;DHT22;11328;53.928;18.522;2022-07-29T15:41:48;24.60;92.60
22321;DHT22;11328;53.928;18.522;2022-07-29T15:44:16;24.60;92.40
22321;DHT22;11328;53.928;18.522;2022-07-29T15:46:47;24.60;92.70
22321;DHT22;11328;53.928;18.522;2022-07-29T15:49:37;24.60;92.10
22321;DHT22;11328;53.928;18.522;2022-07-29T15:52:17;24.50;92.40
22321;DHT22;11328;53.928;18.522;2022-07-29T15:54:53;24.60;92.90
22321;DHT22;11328;53.928;18.522;2022-07-29T15:57:22;24.60;92.60
22321;DHT22;11328;53.928;18.522;2022-07-29T15:59:50;24.50;92.40
22321;DHT22;11328;53.928;18.522;2022-07-29T16:02:18;24.40;93.00
22321;DHT22;11328;53.928;18.522;2022-07-29T16:04:45;24.20;92.90
22321;DHT22;11328;53.928;18.522;2022-07-29T16:07:13;24.20;93.20
22321;DHT22;11328;53.928;18.522;2022-07-29T16:09:42;24.20;93.10
22321;DHT22;11328;53.928;18.522;2022-07-29T16:12:16;24.20;93.40
22321;DHT22;11328;53.928;18.522;2022-07-29T16:14:43;24.20;93.20
22321;DHT22;11328;53.928;18.522;2022-07-29T16:17:10;23.90;93.50
22321;DHT22;11328;53.928;18.522;2022-07-29T16:19:43;24.00;93.60
22321;DHT22;11328;53.928;18.522;2022-07-29T16:22:11;24.00;93.50